Home > Products > Valid Products > TAF

000
FTUS46 KMTR 292300
TAFSJC
TAF
KSJC 292339Z 3000/3024 30010KT P6SM FEW100
     FM300500 VRB03KT P6SM FEW100
     FM301400 VRB03KT 5SM BR FEW004
     FM301500 VRB03KT 1/2SM FG BKN002
     FM301830 VRB03KT 3SM BR FEW003 SCT007
     FM302000 31007KT P6SM SKC=



000
FTUS46 KMTR 292300
TAFSTS
TAF
KSTS 292339Z 3000/3024 21005KT P6SM FEW200
     FM300500 VRB03KT 6SM BR FEW200
     FM300900 00000KT 1SM BR BKN003
     FM301200 00000KT 1/2SM FG VV002
     FM301800 VRB03KT 5SM BR SKC
     FM301900 30006KT P6SM SKC=



000
FTUS46 KMTR 292300
TAFOAK
TAF
KOAK 292339Z 3000/3106 31008KT P6SM FEW200
     FM300400 31004KT P6SM SKC
     FM300800 VRB03KT 6SM BR SCT007
     FM301400 29004KT 3SM BR SCT006
     FM301830 28006KT 5SM BR FEW010
     FM302200 29009KT P6SM FEW012=



000
FTUS46 KMTR 292300
TAFSNS
TAF
KSNS 292339Z 3000/3024 29008KT P6SM SKC
     FM300400 VRB03KT P6SM SKC
     FM301200 VRB03KT 6SM BR SCT007 BKN012
     FM301700 26006KT P6SM SKC=



000
FTUS46 KMTR 292300
TAFMRY
TAF
KMRY 292339Z 3000/3024 31006KT P6SM FEW200
     FM300200 12003KT P6SM FEW010 FEW200
     FM300900 12004KT 5SM BR SCT004 BKN007
     FM301700 29005KT P6SM FEW010=



000
FTUS46 KMTR 292300
TAFLVK
TAF
KLVK 292339Z 3000/3024 06006KT P6SM SKC
     FM300300 VRB03KT P6SM SKC
     FM301400 00000KT 5SM BR SKC
     FM302000 35006KT P6SM SKC=



000
FTUS46 KMTR 292300
TAFSFO
TAF
KSFO 292339Z 3000/3106 30009KT P6SM FEW200
     FM300500 28006KT P6SM FEW011 SCT200
     FM300900 30005KT 6SM BR SCT006
     FM301400 28004KT 2SM BR BKN005
     FM301800 30005KT 5SM BR FEW010
     FM302000 29010KT P6SM FEW012=



000
FTUS46 KMTR 292100 AAA
TAFSFO
TAF AMD
KSFO 292100Z 2921/3024 31006KT P6SM FEW012
     FM292300 30009KT P6SM FEW200
     FM300500 28006KT P6SM FEW015 SCT200
     FM300900 30005KT P6SM SCT006=



000
FTUS46 KMTR 291700
TAFSNS
TAF
KSNS 291734Z 2918/3018 12007KT P6SM FEW200
     FM292100 29008KT P6SM SKC
     FM300400 VRB03KT P6SM SKC
     FM301000 VRB03KT 6SM BR SCT007
     FM301700 26006KT P6SM SKC=



000
FTUS46 KMTR 291700
TAFSJC
TAF
KSJC 291734Z 2918/3018 00000KT 3SM BR SCT006
      TEMPO 2918/2919 2SM BR BKN004
     FM292000 30005KT P6SM FEW200
     FM292300 30010KT P6SM FEW200
     FM300500 VRB03KT P6SM SCT200=



000
FTUS46 KMTR 291700
TAFLVK
TAF
KLVK 291734Z 2918/3018 00000KT P6SM FEW200
     FM292000 05005KT P6SM FEW200
     FM300300 VRB03KT P6SM SKC
     FM301400 00000KT 5SM BR SKC=



000
FTUS46 KMTR 291700
TAFSTS
TAF
KSTS 291734Z 2918/3018 33003KT P6SM FEW200
     FM292300 21005KT P6SM FEW200
     FM300500 VRB03KT 6SM BR FEW200
     FM300900 00000KT 1SM BR BKN003
     FM301100 00000KT 1/2SM FG VV002=



000
FTUS46 KMTR 291700
TAFSFO
TAF
KSFO 291734Z 2918/3024 03003KT 6SM BR SCT007
     FM292100 31006KT P6SM FEW015 FEW200
     FM292300 30009KT P6SM FEW200
     FM300500 28006KT P6SM FEW015 SCT200
     FM300900 30005KT P6SM SCT006=



000
FTUS46 KMTR 291700
TAFMRY
TAF
KMRY 291734Z 2918/3018 11004KT P6SM FEW200
     FM292100 31006KT P6SM FEW200
     FM300200 12003KT P6SM FEW200
     FM300900 12004KT 6SM BR SCT007
     FM301700 29005KT P6SM FEW010=



000
FTUS46 KMTR 291700
TAFOAK
TAF
KOAK 291734Z 2918/3024 03004KT 6SM BR FEW010 FEW200
     FM292100 28005KT P6SM FEW200
     FM292300 31008KT P6SM FEW200
     FM300400 31004KT P6SM SKC
     FM300800 VRB03KT P6SM SCT007=



000
FTUS46 KMTR 291600 AAC
TAFSFO
TAF AMD
KSFO 291632Z 2917/3018 04002KT 3SM BR BKN006
     FM291830 03003KT 6SM BR SCT010
     FM292100 31006KT P6SM FEW015 FEW200
     FM292300 30009KT P6SM FEW200
     FM300500 28006KT P6SM FEW015 SCT200
     FM300900 30005KT P6SM SCT006=



000
FTUS46 KMTR 291500 AAC
TAFSJC
TAF AMD
KSJC 291552Z 2916/3012 00000KT 1/4SM FG BKN001 OVC002
     FM291815 30002KT 5SM BR SCT006
     FM292000 30005KT P6SM FEW200
     FM292300 30010KT P6SM FEW200
     FM300500 VRB03KT P6SM SCT200=



000
FTUS46 KMTR 291500 AAB
TAFSJC
TAF AMD
KSJC 291517Z 2915/3012 VRB03KT 6SM BR FEW002 SCT005
      TEMPO 2915/2917 1SM BR BKN002
     FM292000 30005KT P6SM FEW200
     FM292300 30010KT P6SM FEW200
     FM300500 VRB03KT P6SM SCT200=



000
FTUS46 KMTR 291400 AAB
TAFSFO
TAF AMD
KSFO 291429Z 2914/3018 04003KT 6SM BR OVC005
      TEMPO 2914/2917 2SM BR
     FM291700 04003KT P6SM FEW010
     FM292300 29010KT P6SM FEW200
     FM300500 28006KT P6SM FEW015 SCT200
     FM300900 30005KT P6SM SCT006=



000
FTUS46 KMTR 291400 AAA
TAFSJC
TAF AMD
KSJC 291403Z 2914/3012 VRB03KT P6SM FEW002 SCT005
      TEMPO 2914/2916 BKN005
     FM292000 30005KT P6SM FEW200
     FM292300 30010KT P6SM FEW200
     FM300500 VRB03KT P6SM SCT200=



000
FTUS46 KMTR 291300 AAA
TAFSFO
TAF AMD
KSFO 291316Z 2913/3018 04003KT P6SM OVC005
     FM291700 04003KT P6SM FEW010
     FM292300 29010KT P6SM FEW200
     FM300500 28006KT P6SM FEW015 SCT200
     FM300900 30005KT P6SM SCT006=



000
FTUS46 KMTR 291100 AAA
TAFSTS
TAF AMD
KSTS 291135Z 2912/3012 00000KT 3SM BR SCT002
      TEMPO 2912/2916 1/2SM FG VV002
     FM291600 33003KT 6SM BR FEW200
     FM292300 21005KT P6SM SKC
     FM300500 VRB03KT P6SM SKC=



000
FTUS46 KMTR 291100
TAFSNS
TAF
KSNS 291127Z 2912/3012 12005KT P6SM FEW200
     FM292100 29008KT P6SM SKC
     FM300400 VRB03KT P6SM SKC
     FM301000 VRB03KT P6SM BKN007=



000
FTUS46 KMTR 291100
TAFSTS
TAF
KSTS 291127Z 2912/3012 00000KT 6SM BR SCT200
      TEMPO 2912/2916 1/2SM FG VV002
     FM291600 33003KT 6SM BR FEW200
     FM292300 21005KT P6SM SKC
     FM300500 VRB03KT P6SM SKC=



000
FTUS46 KMTR 291100
TAFSFO
TAF
KSFO 291127Z 2912/3018 04003KT P6SM FEW200
     FM292300 29010KT P6SM FEW200
     FM300500 28006KT P6SM FEW015 SCT200
     FM300900 30005KT P6SM SCT006=



000
FTUS46 KMTR 291100
TAFMRY
TAF
KMRY 291127Z 2912/3012 11004KT P6SM FEW200
     FM292100 31006KT P6SM SCT200
     FM300200 12003KT P6SM FEW200
     FM300900 12004KT P6SM BKN009=



000
FTUS46 KMTR 291100
TAFLVK
TAF
KLVK 291127Z 2912/3012 00000KT P6SM FEW200
     FM292000 05005KT P6SM FEW200
     FM300300 VRB03KT P6SM SKC=



000
FTUS46 KMTR 291100
TAFSJC
TAF
KSJC 291127Z 2912/3012 VRB03KT P6SM FEW200
     FM292000 30005KT P6SM FEW200
     FM292300 30010KT P6SM FEW200
     FM300500 VRB03KT P6SM SCT200=



000
FTUS46 KMTR 291100
TAFOAK
TAF
KOAK 291127Z 2912/3018 03004KT P6SM FEW200
     FM292100 28005KT P6SM SCT200
     FM292300 31008KT P6SM FEW200
     FM300400 31004KT P6SM SKC
     FM300800 VRB03KT P6SM SCT007=



000
FTUS46 KMTR 290900 AAA
TAFOAK
TAF AMD
KOAK 290901Z 2909/3012 05003KT 6SM BR FEW009 FEW200
     FM291800 26005KT 6SM HZ SCT200
     FM292300 31008KT P6SM FEW200=



000
FTUS46 KMTR 290900 AAA
TAFSFO
TAF AMD
KSFO 290900Z 2909/3012 00000KT P6SM FEW009 SCT200
     FM291800 33005KT 6SM HZ SCT200
     FM292100 29010KT P6SM FEW200
     FM300500 28006KT P6SM FEW015 SCT200=



000
FTUS46 KMTR 290800 AAA
TAFSTS
TAF AMD
KSTS 290801Z 2908/3006 00000KT 6SM BR SCT200
      TEMPO 2908/2912 1/2SM FG VV002
     FM291600 33003KT 6SM BR FEW200
     FM292100 29005KT P6SM SKC
     FM300500 VRB03KT P6SM SKC=



000
FTUS46 KMTR 290500
TAFMRY
TAF
KMRY 290536Z 2906/3006 11004KT P6SM FEW200
     FM291800 31006KT P6SM SCT200
     FM300500 12003KT P6SM SKC=



000
FTUS46 KMTR 290500
TAFSNS
TAF
KSNS 290536Z 2906/3006 12005KT P6SM FEW200
     FM292000 29008KT P6SM SKC
     FM300500 VRB03KT P6SM SKC=



000
FTUS46 KMTR 290500
TAFLVK
TAF
KLVK 290534Z 2906/3006 05003KT P6SM SCT200
     FM300000 33005KT P6SM SKC
     FM300500 VRB03KT P6SM SKC=



000
FTUS46 KMTR 290500
TAFSJC
TAF
KSJC 290532Z 2906/3006 VRB03KT P6SM SCT180
     FM292000 33006KT P6SM FEW200
     FM300500 VRB03KT P6SM SCT200=



000
FTUS46 KMTR 290500
TAFOAK
TAF
KOAK 290531Z 2906/3012 31005KT P6SM SCT180
     FM290900 VRB03KT 6SM BR FEW009 SCT200
     FM291800 26005KT 6SM HZ SCT200
     FM292300 31008KT P6SM FEW200=



000
FTUS46 KMTR 290500
TAFSFO
TAF
KSFO 290531Z 2906/3012 29008KT P6SM FEW012 SCT200
     FM290900 30004KT P6SM SCT200
     FM291500 VRB03KT 6SM BR FEW009 SCT200
     FM291800 33005KT 6SM HZ SCT200
     FM292100 29010KT P6SM FEW200
     FM300500 28006KT P6SM FEW015 SCT200=



000
FTUS46 KMTR 290500
TAFSTS
TAF
KSTS 290525Z 2906/3006 00000KT P6SM SKC
     FM290700 33002KT 1SM BR SCT200
     FM291000 00000KT 1/2SM FG VV002
     FM291600 33003KT 6SM BR FEW200
     FM292100 29005KT P6SM SKC
     FM300500 VRB03KT P6SM SKC=



000
FTUS46 KMTR 290300 AAA
TAFSFO
TAF AMD
KSFO 290304Z 2903/3006 28009KT P6SM FEW012 BKN200
     FM290900 30004KT P6SM SCT200
     FM291500 VRB03KT 6SM BR FEW009 SCT200
     FM291800 VRB03KT 6SM HZ SCT200
     FM292100 29009KT P6SM FEW200=



000
FTUS46 KMTR 282300
TAFSJC
TAF
KSJC 282320Z 2900/2924 31006KT P6SM FEW100 SCT150 BKN200
     FM290300 VRB03KT P6SM FEW100 SCT200
     FM291500 VRB03KT 6SM BR FEW030 SCT200
     FM292100 33006KT P6SM FEW200=



000
FTUS46 KMTR 282300
TAFOAK
TAF
KOAK 282320Z 2900/3006 29005KT P6SM BKN200
     FM290900 VRB03KT 6SM BR FEW009 SCT200
     FM291800 26005KT 6SM HZ SCT200
     FM300000 31006KT P6SM FEW200=



000
FTUS46 KMTR 282300
TAFSTS
TAF
KSTS 282320Z 2900/2924 20004KT P6SM SCT200
     FM290700 33002KT 1SM BR SCT200
     FM291000 00000KT 1/2SM FG VV002
     FM291600 33003KT 5SM BR FEW200
     FM292100 29005KT P6SM SKC=



000
FTUS46 KMTR 282300
TAFSNS
TAF
KSNS 282320Z 2900/2924 32004KT P6SM FEW250
     FM290300 VRB03KT P6SM FEW250
     FM291200 11005KT P6SM SKC
     FM292000 29008KT P6SM SKC=



000
FTUS46 KMTR 282300
TAFLVK
TAF
KLVK 282320Z 2900/2924 08007KT P6SM SKC
     FM290300 VRB03KT P6SM SKC
     FM291500 00000KT 6SM BR FEW007
     FM292100 06005KT P6SM SKC=



000
FTUS46 KMTR 282300
TAFSFO
TAF
KSFO 282320Z 2900/3006 29007KT P6SM BKN200
     FM290900 30004KT P6SM SCT200
     FM291500 VRB03KT 6SM BR FEW009 SCT200
     FM291800 VRB03KT 6SM HZ SCT200
     FM292100 29006KT P6SM FEW200=



000
FTUS46 KMTR 282300
TAFMRY
TAF
KMRY 282320Z 2900/2924 30005KT P6SM FEW250
     FM290200 11003KT P6SM FEW250
     FM291100 07005KT P6SM SKC
     FM291800 31006KT P6SM SKC=



000
FTUS46 KMTR 282100 AAA
TAFSFO
TAF AMD
KSFO 282101Z 2821/2924 VRB03KT P6SM FEW200
     FM282200 29007KT P6SM FEW150 SCT200 BKN250
     FM290900 30004KT P6SM FEW150 SCT200
     FM291500 VRB03KT 6SM BR FEW009 SCT200
     FM291800 VRB03KT P6SM SCT150=



000
FTUS46 KMTR 281700
TAFSJC
TAF
KSJC 281735Z 2818/2918 VRB03KT P6SM FEW100 SCT150
     FM282000 31006KT P6SM FEW100 SCT150 SCT200
     FM290300 VRB03KT P6SM FEW100 SCT200=



000
FTUS46 KMTR 281700
TAFSTS
TAF
KSTS 281735Z 2818/2918 VRB03KT P6SM FEW100 SCT200
     FM282000 20004KT P6SM FEW100 SCT200
     FM290700 33002KT 1SM BR FEW100 SCT200
     FM290900 00000KT 1/2SM FG VV002
     FM291600 00000KT 5SM BR FEW100 SCT200=



000
FTUS46 KMTR 281700
TAFSNS
TAF
KSNS 281735Z 2818/2918 11005KT P6SM SKC
     FM282100 27006KT P6SM SKC
     FM290300 VRB03KT P6SM SKC
     FM291200 11005KT P6SM SKC=



000
FTUS46 KMTR 281700
TAFLVK
TAF
KLVK 281735Z 2818/2918 VRB03KT P6SM SKC
     FM282000 05007KT P6SM FEW250
     FM290300 VRB03KT P6SM FEW250
     FM291500 00000KT 6SM BR FEW009 FEW250=



000
FTUS46 KMTR 281700
TAFSFO
TAF
KSFO 281735Z 2818/2924 VRB03KT P6SM FEW200
     FM282200 29007KT P6SM FEW150 SCT200 BKN250
     FM290900 30004KT P6SM FEW150 SCT200
     FM291500 VRB03KT 6SM BR FEW009 SCT200
     FM291800 VRB03KT P6SM SCT150=



000
FTUS46 KMTR 281700
TAFOAK
TAF
KOAK 281735Z 2818/2924 VRB03KT P6SM FEW150
     FM282000 29005KT P6SM FEW100 SCT200 BKN250
     FM290900 VRB03KT 6SM BR FEW009 SCT200
     FM291800 VRB03KT P6SM SCT150=



000
FTUS46 KMTR 281700
TAFMRY
TAF
KMRY 281735Z 2818/2918 07005KT P6SM SKC
     FM282100 30005KT P6SM SKC
     FM290200 VRB03KT P6SM SKC
     FM291100 07005KT P6SM SKC=



000
FTUS46 KMTR 281500 AAA
TAFSFO
TAF AMD
KSFO 281505Z 2815/2918 00000KT P6SM FEW200
     FM281800 06004KT P6SM FEW250
     FM282200 29007KT P6SM FEW250
     FM290900 VRB03KT P6SM SKC=



000
FTUS46 KMTR 281100
TAFSNS
TAF
KSNS 281126Z 2812/2912 11006KT P6SM SKC
     FM282100 28006KT P6SM SKC
     FM290300 VRB03KT P6SM SKC=



000
FTUS46 KMTR 281100
TAFLVK
TAF
KLVK 281126Z 2812/2912 VRB03KT P6SM SKC
     FM282000 05005KT P6SM SKC
     FM290300 VRB03KT P6SM SKC=



000
FTUS46 KMTR 281100
TAFOAK
TAF
KOAK 281126Z 2812/2918 VRB03KT P6SM FEW200
     FM282000 29005KT P6SM FEW250
     FM290300 VRB03KT P6SM FEW250
     FM290900 VRB03KT 6SM BR SCT007=



000
FTUS46 KMTR 281100
TAFMRY
TAF
KMRY 281126Z 2812/2912 07005KT P6SM SKC
     FM282100 30005KT P6SM SKC
     FM290200 VRB03KT P6SM SKC
     FM291100 07005KT P6SM SKC=



000
FTUS46 KMTR 281100
TAFSJC
TAF
KSJC 281126Z 2812/2912 12006KT P6SM FEW200
     FM282000 31006KT P6SM FEW200
     FM290300 VRB03KT P6SM SKC=



000
FTUS46 KMTR 281100
TAFSTS
TAF
KSTS 281126Z 2812/2912 35004KT 5SM BR SKC
      TEMPO 2812/2816 1/2SM FG VV002
     FM281700 VRB03KT P6SM FEW200
     FM282000 20004KT P6SM FEW200
     FM290800 00000KT 1SM BR SKC=



000
FTUS46 KMTR 281100
TAFSFO
TAF
KSFO 281126Z 2812/2918 00000KT P6SM FEW200
     FM281800 06004KT P6SM FEW250
     FM282200 29007KT P6SM FEW250
     FM290900 VRB03KT P6SM SKC=



000
FTUS46 KMTR 280900 AAA
TAFSFO
TAF AMD
KSFO 280900Z 2809/2912 00000KT P6SM SCT160
     FM281800 06004KT P6SM SCT150
     FM282200 32007KT P6SM SCT150=



000
FTUS46 KMTR 280900 AAA
TAFSFO
TAF AMD
KSFO 280900Z 2809/2912 00000KT P6SM SCT160
     FM281800 06004KT P6SM SCT150
     FM282200 32007KT P6SM SCT150=



000
FTUS46 KMTR 280800 AAB
TAFSTS
TAF AMD
KSTS 280859Z 2809/2906 00000KT 2SM BR SCT150
      TEMPO 2809/2813 1/2SM FG VV002
     FM281800 VRB03KT P6SM FEW200
     FM282000 20004KT P6SM FEW200=



000
FTUS46 KMTR 280800 AAB
TAFSTS
TAF AMD
KSTS 280859Z 2809/2906 00000KT 2SM BR SCT150
      TEMPO 2809/2813 1/2SM FG VV002
     FM281800 VRB03KT P6SM FEW200
     FM282000 20004KT P6SM FEW200=



000
FTUS46 KMTR 280800 AAA
TAFSTS
TAF AMD
KSTS 280819Z 2808/2906 00000KT 2SM BR SCT150
     FM281800 VRB03KT P6SM FEW200
     FM282000 20004KT P6SM FEW200=



000
FTUS46 KMTR 280500
TAFSTS
TAF
KSTS 280540Z 2806/2906 00000KT P6SM SCT150
     FM282000 20004KT P6SM FEW150=



000
FTUS46 KMTR 280500
TAFMRY
TAF
KMRY 280540Z 2806/2906 08003KT P6SM SCT100
     FM282100 30004KT P6SM SCT150=



000
FTUS46 KMTR 280500
TAFSJC
TAF
KSJC 280540Z 2806/2906 VRB03KT P6SM FEW080
     FM281300 11006KT P6SM FEW200
     FM282000 32004KT P6SM SCT150=



000
FTUS46 KMTR 280500
TAFOAK
TAF
KOAK 280540Z 2806/2912 VRB03KT P6SM FEW150
     FM282000 27005KT P6SM SCT150
     FM282300 31005KT P6SM SCT150=



000
FTUS46 KMTR 280500
TAFSNS
TAF
KSNS 280540Z 2806/2906 24003KT P6SM OVC100
     FM281000 11005KT P6SM SCT150
     FM282300 29008KT P6SM SCT150=



000
FTUS46 KMTR 280500
TAFSFO
TAF
KSFO 280540Z 2806/2912 00000KT P6SM SCT160
     FM281800 06004KT P6SM SCT150
     FM282200 32007KT P6SM SCT150=



000
FTUS46 KMTR 280500
TAFLVK
TAF
KLVK 280540Z 2806/2906 00000KT P6SM SKC
     FM281500 07004KT P6SM SCT100=



000
FTUS46 KMTR 280300 AAA
TAFSFO
TAF AMD
KSFO 280304Z 2803/2906 VRB03KT P6SM SCT150
     FM281800 06004KT P6SM SCT150
     FM282200 32006KT P6SM SCT150=



000
FTUS46 KMTR 280300 AAA
TAFSFO
TAF AMD
KSFO 280304Z 2803/2906 VRB03KT P6SM SCT150
     FM281800 06004KT P6SM SCT150
     FM282200 32006KT P6SM SCT150=



000
FTUS46 KMTR 272300
TAFSNS
TAF
KSNS 272332Z 2800/2824 25011G15KT P6SM SKC
     FM280300 VRB03KT P6SM SCT150
     FM281000 11005KT P6SM SCT150
     FM282300 29008KT P6SM SCT150=



000
FTUS46 KMTR 272300
TAFSJC
TAF
KSJC 272332Z 2800/2824 31006KT P6SM FEW070 SCT110 BKN150
     FM280300 20005KT P6SM BKN200
     FM280800 00000KT P6SM FEW200
     FM281300 11006KT P6SM FEW200
     FM282000 32004KT P6SM SCT150=



000
FTUS46 KMTR 272300
TAFMRY
TAF
KMRY 272332Z 2800/2824 25004KT P6SM SKC
     FM280300 10003KT P6SM SCT150
     FM282100 30004KT P6SM SCT150=



000
FTUS46 KMTR 272300
TAFSFO
TAF
KSFO 272332Z 2800/2906 21006KT P6SM FEW060 BKN100 BKN160
     FM280500 00000KT P6SM BKN150
     FM280800 VRB03KT P6SM SCT150
     FM281800 06004KT P6SM SCT150
     FM282200 32006KT P6SM SCT150=



000
FTUS46 KMTR 272300
TAFOAK
TAF
KOAK 272332Z 2800/2906 30005KT P6SM BKN100 BKN110 OVC140
     FM280200 VRB03KT P6SM BKN100
     FM280500 05003KT P6SM BKN150
     FM282000 27004KT P6SM SCT150
     FM282300 31005KT P6SM SCT150=



000
FTUS46 KMTR 272300
TAFSTS
TAF
KSTS 272332Z 2800/2824 VRB03KT P6SM SCT050 OVC120
     FM280300 00000KT P6SM BKN100
     FM282000 24004KT P6SM FEW100=



000
FTUS46 KMTR 272300
TAFLVK
TAF
KLVK 272332Z 2800/2824 32005KT P6SM OVC110
     FM281500 07004KT P6SM SCT100=



000
FTUS46 KMTR 272100 AAB
TAFSFO
TAF AMD
KSFO 272104Z 2721/2824 22008KT P6SM FEW070 OVC100
     FM280200 21006KT P6SM BKN100
     FM280500 00000KT P6SM BKN150
     FM280800 00000KT P6SM SCT150=



000
FTUS46 KMTR 272000 AAA
TAFSFO
TAF AMD
KSFO 272000Z 2720/2824 01008KT P6SM FEW070 OVC100
     FM280200 21006KT P6SM BKN100
     FM280500 00000KT P6SM BKN150
     FM280800 00000KT P6SM SCT150=



000
FTUS46 KMTR 271700
TAFSTS
TAF
KSTS 271731Z 2718/2818 34003KT P6SM OVC120
     FM272100 18006KT P6SM OVC120
     FM280300 00000KT P6SM BKN100=



000
FTUS46 KMTR 271700
TAFSJC
TAF
KSJC 271731Z 2718/2818 10007KT P6SM FEW040 OVC100
     FM272300 30007KT P6SM BKN100
     FM280300 20005KT P6SM BKN200
     FM280800 00000KT P6SM FEW200
     FM281300 11006KT P6SM FEW200=



000
FTUS46 KMTR 271700
TAFSFO
TAF
KSFO 271731Z 2718/2824 12008G12KT P6SM FEW070 OVC100
     FM280200 21006KT P6SM BKN100
     FM280500 00000KT P6SM BKN150
     FM280800 00000KT P6SM SCT150=



000
FTUS46 KMTR 271700
TAFSNS
TAF
KSNS 271731Z 2718/2818 12012KT P6SM OVC100
     FM272000 12006KT P6SM BKN120
     FM280000 29008KT P6SM SCT150
     FM280300 VRB03KT P6SM SCT150
     FM281000 11005KT P6SM SCT150=



000
FTUS46 KMTR 271700
TAFMRY
TAF
KMRY 271731Z 2718/2818 VRB03KT P6SM FEW080 BKN120
     FM272100 29005KT P6SM BKN150
     FM280300 10003KT P6SM SCT150=



000
FTUS46 KMTR 271700
TAFOAK
TAF
KOAK 271731Z 2718/2824 15003KT P6SM FEW070 OVC100
     FM272000 21006KT P6SM SCT050 BKN100
     FM280200 00000KT P6SM BKN100
     FM280500 05003KT P6SM BKN150
     FM282000 27004KT P6SM SCT150=



000
FTUS46 KMTR 271700
TAFLVK
TAF
KLVK 271731Z 2718/2818 00000KT P6SM OVC120
     FM280300 VRB03KT P6SM BKN200=



000
FTUS46 KMTR 271500 AAB
TAFSFO
TAF AMD
KSFO 271503Z 2715/2818 15011KT P6SM FEW025 BKN110
     FM280200 21006KT P6SM BKN100
     FM280500 00000KT P6SM BKN200
     FM280800 00000KT P6SM SCT200=



000
FTUS46 KMTR 271200 AAA
TAFSJC
TAF AMD
KSJC 271228Z 2712/2812 12008KT P6SM BKN100
      TEMPO 2712/2716 10005G20KT
     FM272200 20007KT P6SM BKN100
     FM280300 20005KT P6SM BKN200
     FM280800 00000KT P6SM FEW200=



000
FTUS46 KMTR 271200 AAA
TAFSFO
TAF AMD
KSFO 271227Z 2712/2818 00000KT P6SM BKN100 OVC120
      TEMPO 2712/2716 VRB05G15KT
     FM271700 12005KT P6SM BKN100
     FM280200 21006KT P6SM BKN100
     FM280500 00000KT P6SM BKN200
     FM280800 00000KT P6SM SCT200=



000
FTUS46 KMTR 271100
TAFSJC
TAF
KSJC 271133Z 2712/2812 14008KT P6SM BKN110
     FM272200 20007KT P6SM BKN100
     FM280300 20005KT P6SM BKN200
     FM280800 00000KT P6SM FEW200=



000
FTUS46 KMTR 271100
TAFSFO
TAF
KSFO 271133Z 2712/2818 00000KT P6SM BKN110 OVC120
     FM271700 12005KT P6SM BKN100
     FM280200 21006KT P6SM BKN100
     FM280500 00000KT P6SM BKN200
     FM280800 00000KT P6SM SCT200=



000
FTUS46 KMTR 271100
TAFSNS
TAF
KSNS 271133Z 2712/2812 12019G23KT P6SM VCSH FEW060 OVC100
     FM272000 12006KT P6SM SCT120 BKN200
     FM280000 29008KT P6SM SCT200
     FM280300 VRB03KT P6SM SKC=



000
FTUS46 KMTR 271100
TAFMRY
TAF
KMRY 271133Z 2712/2812 00000KT P6SM VCSH BKN100 OVC120
     FM271800 VRB03KT P6SM SCT100 BKN120
     FM272100 29005KT P6SM BKN200
     FM280300 10003KT P6SM SKC=



000
FTUS46 KMTR 271100
TAFSTS
TAF
KSTS 271133Z 2712/2812 00000KT P6SM BKN120
     FM271700 VRB03KT P6SM BKN100
     FM272100 18006KT P6SM BKN050 BKN100
     FM280300 00000KT P6SM BKN050=



000
FTUS46 KMTR 271100
TAFOAK
TAF
KOAK 271133Z 2712/2818 VRB03KT P6SM OVC110
     FM272000 21006KT P6SM BKN050 BKN100
     FM280200 00000KT P6SM BKN100
     FM280500 00000KT P6SM BKN250=



000
FTUS46 KMTR 271100
TAFLVK
TAF
KLVK 271133Z 2712/2812 00000KT P6SM BKN120
     FM271300 21004KT P6SM OVC100
     FM280300 00000KT P6SM BKN200=



000
FTUS46 KMTR 271000 AAA
TAFLVK
TAF AMD
KLVK 271029Z 2710/2806 00000KT P6SM BKN120
      TEMPO 2710/2712 18015G20KT
     FM271300 21004KT P6SM OVC100
      TEMPO 2713/2717 3SM BR
     FM280300 00000KT P6SM BKN200=



000
FTUS46 KMTR 271000 AAA
TAFOAK
TAF AMD
KOAK 271028Z 2710/2812 VRB03KT P6SM BKN120
      TEMPO 2710/2712 18015G20KT
     FM271200 15008KT P6SM BKN110
     FM272000 25006KT P6SM BKN100
     FM280300 00000KT P6SM BKN100=



000
FTUS46 KMTR 271000 AAA
TAFSJC
TAF AMD
KSJC 271027Z 2710/2806 14008KT P6SM BKN110
      TEMPO 2710/2712 17015G20KT
     FM272200 20006KT P6SM BKN200=



000
FTUS46 KMTR 271000 AAB
TAFSFO
TAF AMD
KSFO 271026Z 2710/2812 VRB03KT P6SM FEW100 BKN120
      TEMPO 2710/2712 18015G25KT
     FM271600 12005KT P6SM BKN100
     FM280200 21006KT P6SM BKN100
     FM280500 VRB04KT P6SM BKN200
     FM280800 00000KT P6SM SCT200=



000
FTUS46 KMTR 270900 AAA
TAFSFO
TAF AMD
KSFO 270902Z 2709/2812 VRB03KT P6SM BKN120
     FM271600 12005KT P6SM BKN100
     FM280200 21006KT P6SM BKN100
     FM280500 VRB04KT P6SM BKN200
     FM280800 00000KT P6SM SCT200=



000
FTUS46 KMTR 270500
TAFMRY
TAF
KMRY 270538Z 2706/2806 VRB05KT P6SM BKN150
     FM270800 15004KT P6SM OVC100
     FM271100 11006KT P6SM VCSH SCT080 BKN150
     FM271800 VRB03KT P6SM SCT100 BKN150
     FM272200 30005KT P6SM BKN200
     FM280300 10003KT P6SM SKC=



000
FTUS46 KMTR 270500
TAFSJC
TAF
KSJC 270538Z 2706/2806 00000KT P6SM FEW080 BKN150
     FM271200 14008KT P6SM SCT080 BKN150
     FM272200 20006KT P6SM BKN200=



000
FTUS46 KMTR 270500
TAFSTS
TAF
KSTS 270538Z 2706/2806 00000KT P6SM SKC
     FM271200 00000KT 1/2SM FG VV002
     FM271700 VRB03KT P6SM BKN120 BKN200
     FM272200 16006KT P6SM BKN100
     FM280300 00000KT P6SM BKN050=



000
FTUS46 KMTR 270500
TAFOAK
TAF
KOAK 270538Z 2706/2812 VRB03KT P6SM BKN180
     FM271200 15008KT P6SM BKN150
     FM272000 25006KT P6SM BKN100
     FM280300 00000KT P6SM BKN100=



000
FTUS46 KMTR 270500
TAFSFO
TAF
KSFO 270538Z 2706/2812 00000KT P6SM BKN200
     FM271400 12005KT P6SM BKN180
     FM280200 21006KT P6SM BKN100
     FM280500 VRB04KT P6SM BKN200=



000
FTUS46 KMTR 270500
TAFLVK
TAF
KLVK 270538Z 2706/2806 00000KT P6SM BKN180
     FM271300 21004KT P6SM OVC100
      TEMPO 2713/2717 3SM BR
     FM280300 00000KT P6SM BKN200=



000
FTUS46 KMTR 270500
TAFSNS
TAF
KSNS 270538Z 2706/2806 08005KT P6SM SKC
     FM271100 11012KT P6SM VCSH SCT080 OVC120
     FM272000 12006KT P6SM SCT120 BKN200
     FM280300 VRB03KT P6SM SKC=



000
FTUS46 KMTR 270400 AAA
TAFSFO
TAF AMD
KSFO 270403Z 2704/2806 VRB03KT P6SM BKN200
     FM271200 12005KT P6SM SCT080 BKN120 OVC200
     FM272200 21006KT P6SM BKN200=



    US Dept of Commerce
    National Oceanic and Atmospheric Administration
    National Weather Service
    1325 East West Highway
    Silver Spring, MD 20910
    Page Author: NWS Internet Services Team
Disclaimer
Information Quality
Credits
Glossary
Privacy Policy
Freedom of Information Act (FOIA)
About Us
Career Opportunities